sensor_id;sensor_type;location;lat;lon;timestamp;temperature;humidity
1205;DHT22;592;48.764;9.174;2023-06-26T00:01:38;21.80;92.30
1205;DHT22;592;48.764;9.174;2023-06-26T00:04:05;21.80;92.30
1205;DHT22;592;48.764;9.174;2023-06-26T00:06:32;21.60;92.60
1205;DHT22;592;48.764;9.174;2023-06-26T00:08:58;21.50;92.80
1205;DHT22;592;48.764;9.174;2023-06-26T00:11:25;21.60;92.80
1205;DHT22;592;48.764;9.174;2023-06-26T00:13:53;21.70;92.10
1205;DHT22;592;48.764;9.174;2023-06-26T00:16:21;21.80;91.80
1205;DHT22;592;48.764;9.174;2023-06-26T00:18:47;21.90;91.90
1205;DHT22;592;48.764;9.174;2023-06-26T00:21:14;21.90;92.10
1205;DHT22;592;48.764;9.174;2023-06-26T00:23:41;21.80;92.40
1205;DHT22;592;48.764;9.174;2023-06-26T00:26:08;21.80;92.20
1205;DHT22;592;48.764;9.174;2023-06-26T00:28:35;21.90;92.10
1205;DHT22;592;48.764;9.174;2023-06-26T00:31:02;21.80;92.70
1205;DHT22;592;48.764;9.174;2023-06-26T00:33:30;21.80;92.10
1205;DHT22;592;48.764;9.174;2023-06-26T00:35:57;21.80;92.40
1205;DHT22;592;48.764;9.174;2023-06-26T00:38:23;21.80;92.30
1205;DHT22;592;48.764;9.174;2023-06-26T00:40:50;21.50;92.70
1205;DHT22;592;48.764;9.174;2023-06-26T00:43:17;21.50;92.60
1205;DHT22;592;48.764;9.174;2023-06-26T00:45:44;21.60;92.60
1205;DHT22;592;48.764;9.174;2023-06-26T00:48:11;21.50;93.00
1205;DHT22;592;48.764;9.174;2023-06-26T00:50:40;21.20;93.40
1205;DHT22;592;48.764;9.174;2023-06-26T00:53:09;21.20;93.40
1205;DHT22;592;48.764;9.174;2023-06-26T00:55:36;21.10;93.50
1205;DHT22;592;48.764;9.174;2023-06-26T00:58:03;21.00;93.80
1205;DHT22;592;48.764;9.174;2023-06-26T01:00:29;20.80;94.00
1205;DHT22;592;48.764;9.174;2023-06-26T01:02:56;20.60;94.40
1205;DHT22;592;48.764;9.174;2023-06-26T01:05:24;20.50;94.30
1205;DHT22;592;48.764;9.174;2023-06-26T01:07:54;20.60;94.30
1205;DHT22;592;48.764;9.174;2023-06-26T01:10:21;20.60;94.40
1205;DHT22;592;48.764;9.174;2023-06-26T01:12:49;20.50;94.30
1205;DHT22;592;48.764;9.174;2023-06-26T01:15:15;20.60;94.40
1205;DHT22;592;48.764;9.174;2023-06-26T01:17:42;20.60;94.40
1205;DHT22;592;48.764;9.174;2023-06-26T01:20:10;20.50;94.30
1205;DHT22;592;48.764;9.174;2023-06-26T01:22:45;20.40;94.60
1205;DHT22;592;48.764;9.174;2023-06-26T01:25:21;20.30;94.80
1205;DHT22;592;48.764;9.174;2023-06-26T01:27:53;20.30;95.10
1205;DHT22;592;48.764;9.174;2023-06-26T01:30:21;20.20;95.10
1205;DHT22;592;48.764;9.174;2023-06-26T01:32:49;20.30;95.10
1205;DHT22;592;48.764;9.174;2023-06-26T01:35:16;20.20;95.10
1205;DHT22;592;48.764;9.174;2023-06-26T01:37:43;20.10;95.30
1205;DHT22;592;48.764;9.174;2023-06-26T01:40:10;20.10;95.30
1205;DHT22;592;48.764;9.174;2023-06-26T01:42:37;20.10;95.50
1205;DHT22;592;48.764;9.174;2023-06-26T01:45:10;20.00;95.50
1205;DHT22;592;48.764;9.174;2023-06-26T01:47:40;20.00;95.60
1205;DHT22;592;48.764;9.174;2023-06-26T01:50:11;20.00;95.60
1205;DHT22;592;48.764;9.174;2023-06-26T01:52:41;20.00;95.70
1205;DHT22;592;48.764;9.174;2023-06-26T01:55:12;19.90;95.80
1205;DHT22;592;48.764;9.174;2023-06-26T01:57:42;19.90;95.90
1205;DHT22;592;48.764;9.174;2023-06-26T02:00:11;19.90;95.90
1205;DHT22;592;48.764;9.174;2023-06-26T02:02:40;19.80;95.90
1205;DHT22;592;48.764;9.174;2023-06-26T02:05:07;19.90;96.00
1205;DHT22;592;48.764;9.174;2023-06-26T02:07:34;19.80;95.90
1205;DHT22;592;48.764;9.174;2023-06-26T02:10:01;19.80;96.10
1205;DHT22;592;48.764;9.174;2023-06-26T02:12:28;19.70;96.10
1205;DHT22;592;48.764;9.174;2023-06-26T02:14:54;19.70;96.10
1205;DHT22;592;48.764;9.174;2023-06-26T02:17:22;19.80;96.20
1205;DHT22;592;48.764;9.174;2023-06-26T02:19:49;19.90;96.20
1205;DHT22;592;48.764;9.174;2023-06-26T02:22:17;19.80;96.10
1205;DHT22;592;48.764;9.174;2023-06-26T02:24:43;19.90;96.00
1205;DHT22;592;48.764;9.174;2023-06-26T02:27:10;20.00;95.80
1205;DHT22;592;48.764;9.174;2023-06-26T02:29:38;20.00;95.70
1205;DHT22;592;48.764;9.174;2023-06-26T02:32:06;20.00;95.90
1205;DHT22;592;48.764;9.174;2023-06-26T02:34:34;20.00;95.90
1205;DHT22;592;48.764;9.174;2023-06-26T02:37:01;19.90;96.10
1205;DHT22;592;48.764;9.174;2023-06-26T02:39:28;19.90;96.00
1205;DHT22;592;48.764;9.174;2023-06-26T02:41:54;19.90;96.00
1205;DHT22;592;48.764;9.174;2023-06-26T02:44:21;19.90;96.10
1205;DHT22;592;48.764;9.174;2023-06-26T02:46:48;19.90;96.20
1205;DHT22;592;48.764;9.174;2023-06-26T02:49:14;19.80;96.20
1205;DHT22;592;48.764;9.174;2023-06-26T02:51:42;19.90;96.20
1205;DHT22;592;48.764;9.174;2023-06-26T02:54:09;19.80;96.50
1205;DHT22;592;48.764;9.174;2023-06-26T02:56:36;19.70;96.40
1205;DHT22;592;48.764;9.174;2023-06-26T02:59:03;19.80;96.20
1205;DHT22;592;48.764;9.174;2023-06-26T03:01:29;19.90;96.40
1205;DHT22;592;48.764;9.174;2023-06-26T03:03:56;19.70;96.50
1205;DHT22;592;48.764;9.174;2023-06-26T03:06:23;19.80;96.60
1205;DHT22;592;48.764;9.174;2023-06-26T03:08:51;19.70;96.60
1205;DHT22;592;48.764;9.174;2023-06-26T03:11:17;19.70;96.60
1205;DHT22;592;48.764;9.174;2023-06-26T03:13:44;19.60;96.70
1205;DHT22;592;48.764;9.174;2023-06-26T03:16:11;19.60;96.70
1205;DHT22;592;48.764;9.174;2023-06-26T03:18:37;19.50;96.80
1205;DHT22;592;48.764;9.174;2023-06-26T03:21:04;19.60;96.80
1205;DHT22;592;48.764;9.174;2023-06-26T03:23:31;19.60;96.80
1205;DHT22;592;48.764;9.174;2023-06-26T03:25:59;19.50;97.00
1205;DHT22;592;48.764;9.174;2023-06-26T03:28:25;19.50;97.00
1205;DHT22;592;48.764;9.174;2023-06-26T03:30:52;19.60;97.00
1205;DHT22;592;48.764;9.174;2023-06-26T03:33:19;19.50;97.00
1205;DHT22;592;48.764;9.174;2023-06-26T03:35:46;19.50;97.20
1205;DHT22;592;48.764;9.174;2023-06-26T03:38:12;19.50;97.30
1205;DHT22;592;48.764;9.174;2023-06-26T03:40:39;19.60;97.10
1205;DHT22;592;48.764;9.174;2023-06-26T03:43:07;19.50;97.20
1205;DHT22;592;48.764;9.174;2023-06-26T03:45:34;19.60;97.20
1205;DHT22;592;48.764;9.174;2023-06-26T03:48:00;19.70;97.10
1205;DHT22;592;48.764;9.174;2023-06-26T03:50:27;19.80;97.00
1205;DHT22;592;48.764;9.174;2023-06-26T03:52:54;19.90;96.90
1205;DHT22;592;48.764;9.174;2023-06-26T03:55:21;20.00;97.10
1205;DHT22;592;48.764;9.174;2023-06-26T03:57:49;20.10;96.70
1205;DHT22;592;48.764;9.174;2023-06-26T04:00:18;20.10;96.70
1205;DHT22;592;48.764;9.174;2023-06-26T04:02:44;20.20;96.40
1205;DHT22;592;48.764;9.174;2023-06-26T04:05:11;20.30;96.40
1205;DHT22;592;48.764;9.174;2023-06-26T04:07:38;20.40;96.20
1205;DHT22;592;48.764;9.174;2023-06-26T04:10:06;20.50;96.30
1205;DHT22;592;48.764;9.174;2023-06-26T04:12:32;20.50;96.30
1205;DHT22;592;48.764;9.174;2023-06-26T04:14:59;20.40;96.50
1205;DHT22;592;48.764;9.174;2023-06-26T04:17:27;20.40;96.50
1205;DHT22;592;48.764;9.174;2023-06-26T04:19:54;20.40;96.50
1205;DHT22;592;48.764;9.174;2023-06-26T04:22:21;20.60;96.60
1205;DHT22;592;48.764;9.174;2023-06-26T04:24:47;20.80;96.70
1205;DHT22;592;48.764;9.174;2023-06-26T04:27:14;21.00;96.30
1205;DHT22;592;48.764;9.174;2023-06-26T04:29:42;21.00;96.20
1205;DHT22;592;48.764;9.174;2023-06-26T04:32:08;21.00;96.50
1205;DHT22;592;48.764;9.174;2023-06-26T04:34:36;21.20;95.70
1205;DHT22;592;48.764;9.174;2023-06-26T04:37:06;21.30;96.10
1205;DHT22;592;48.764;9.174;2023-06-26T04:39:35;21.50;96.30
1205;DHT22;592;48.764;9.174;2023-06-26T04:42:02;21.60;96.00
1205;DHT22;592;48.764;9.174;2023-06-26T04:44:29;21.70;95.80
1205;DHT22;592;48.764;9.174;2023-06-26T04:46:55;21.70;95.90
1205;DHT22;592;48.764;9.174;2023-06-26T04:49:22;21.70;95.70
1205;DHT22;592;48.764;9.174;2023-06-26T04:51:51;21.90;95.60
1205;DHT22;592;48.764;9.174;2023-06-26T04:54:18;22.10;95.60
1205;DHT22;592;48.764;9.174;2023-06-26T04:56:45;22.20;95.70
1205;DHT22;592;48.764;9.174;2023-06-26T04:59:13;22.40;95.80
1205;DHT22;592;48.764;9.174;2023-06-26T05:01:40;22.40;96.00
1205;DHT22;592;48.764;9.174;2023-06-26T05:04:07;22.50;95.70
1205;DHT22;592;48.764;9.174;2023-06-26T05:06:34;22.70;95.40
1205;DHT22;592;48.764;9.174;2023-06-26T05:09:02;22.70;95.20
1205;DHT22;592;48.764;9.174;2023-06-26T05:11:28;22.80;95.10
1205;DHT22;592;48.764;9.174;2023-06-26T05:13:55;22.90;95.30
1205;DHT22;592;48.764;9.174;2023-06-26T05:16:22;22.90;95.10
1205;DHT22;592;48.764;9.174;2023-06-26T05:18:48;23.00;95.20
1205;DHT22;592;48.764;9.174;2023-06-26T05:21:16;23.20;94.80
1205;DHT22;592;48.764;9.174;2023-06-26T05:23:43;23.20;93.70
1205;DHT22;592;48.764;9.174;2023-06-26T05:26:12;23.30;94.60
1205;DHT22;592;48.764;9.174;2023-06-26T05:28:40;23.50;94.70
1205;DHT22;592;48.764;9.174;2023-06-26T05:31:07;23.60;93.70
1205;DHT22;592;48.764;9.174;2023-06-26T05:33:35;23.60;93.70
1205;DHT22;592;48.764;9.174;2023-06-26T05:36:04;23.60;94.50
1205;DHT22;592;48.764;9.174;2023-06-26T05:38:32;23.60;93.60
1205;DHT22;592;48.764;9.174;2023-06-26T05:41:00;23.60;93.60
1205;DHT22;592;48.764;9.174;2023-06-26T05:43:28;23.80;93.40
1205;DHT22;592;48.764;9.174;2023-06-26T05:45:55;23.60;93.50
1205;DHT22;592;48.764;9.174;2023-06-26T05:48:22;23.80;93.60
1205;DHT22;592;48.764;9.174;2023-06-26T05:50:49;24.00;93.70
1205;DHT22;592;48.764;9.174;2023-06-26T05:53:16;24.00;93.20
1205;DHT22;592;48.764;9.174;2023-06-26T05:55:44;24.10;93.20
1205;DHT22;592;48.764;9.174;2023-06-26T05:58:11;24.30;93.00
1205;DHT22;592;48.764;9.174;2023-06-26T06:00:40;24.50;94.00
1205;DHT22;592;48.764;9.174;2023-06-26T06:03:06;24.80;93.50
1205;DHT22;592;48.764;9.174;2023-06-26T06:05:35;24.90;92.20
1205;DHT22;592;48.764;9.174;2023-06-26T06:08:02;24.70;92.40
1205;DHT22;592;48.764;9.174;2023-06-26T06:10:28;25.00;92.70
1205;DHT22;592;48.764;9.174;2023-06-26T06:12:55;25.30;92.70
1205;DHT22;592;48.764;9.174;2023-06-26T06:15:24;25.40;92.10
1205;DHT22;592;48.764;9.174;2023-06-26T06:17:52;25.50;92.50
1205;DHT22;592;48.764;9.174;2023-06-26T06:20:19;25.60;91.80
1205;DHT22;592;48.764;9.174;2023-06-26T06:22:46;25.80;92.00
1205;DHT22;592;48.764;9.174;2023-06-26T06:25:14;26.00;92.10
1205;DHT22;592;48.764;9.174;2023-06-26T06:27:41;26.10;91.80
1205;DHT22;592;48.764;9.174;2023-06-26T06:30:09;26.20;91.40
1205;DHT22;592;48.764;9.174;2023-06-26T06:32:36;26.20;91.60
1205;DHT22;592;48.764;9.174;2023-06-26T06:35:04;26.30;91.00
1205;DHT22;592;48.764;9.174;2023-06-26T06:37:35;26.30;91.20
1205;DHT22;592;48.764;9.174;2023-06-26T06:40:03;26.40;91.30
1205;DHT22;592;48.764;9.174;2023-06-26T06:42:31;26.30;91.20
1205;DHT22;592;48.764;9.174;2023-06-26T06:44:58;26.50;90.70
1205;DHT22;592;48.764;9.174;2023-06-26T06:47:24;26.50;90.30
1205;DHT22;592;48.764;9.174;2023-06-26T06:49:51;26.80;91.00
1205;DHT22;592;48.764;9.174;2023-06-26T06:52:19;26.90;90.30
1205;DHT22;592;48.764;9.174;2023-06-26T06:54:53;26.60;90.30
1205;DHT22;592;48.764;9.174;2023-06-26T06:57:20;26.80;90.60
1205;DHT22;592;48.764;9.174;2023-06-26T06:59:47;27.00;91.20
1205;DHT22;592;48.764;9.174;2023-06-26T07:02:14;27.20;91.10
1205;DHT22;592;48.764;9.174;2023-06-26T07:04:41;27.30;90.80
1205;DHT22;592;48.764;9.174;2023-06-26T07:07:08;27.40;90.40
1205;DHT22;592;48.764;9.174;2023-06-26T07:09:36;27.20;90.40
1205;DHT22;592;48.764;9.174;2023-06-26T07:12:04;27.40;90.20
1205;DHT22;592;48.764;9.174;2023-06-26T07:14:31;27.30;90.20
1205;DHT22;592;48.764;9.174;2023-06-26T07:16:57;27.30;89.80
1205;DHT22;592;48.764;9.174;2023-06-26T07:19:24;27.30;90.00
1205;DHT22;592;48.764;9.174;2023-06-26T07:21:51;27.30;90.10
1205;DHT22;592;48.764;9.174;2023-06-26T07:24:18;27.50;90.20
1205;DHT22;592;48.764;9.174;2023-06-26T07:26:46;27.70;90.00
1205;DHT22;592;48.764;9.174;2023-06-26T07:29:13;27.90;89.90
1205;DHT22;592;48.764;9.174;2023-06-26T07:31:40;28.00;89.70
1205;DHT22;592;48.764;9.174;2023-06-26T07:34:07;27.80;89.80
1205;DHT22;592;48.764;9.174;2023-06-26T07:36:33;28.00;90.10
1205;DHT22;592;48.764;9.174;2023-06-26T07:39:00;28.00;90.00
1205;DHT22;592;48.764;9.174;2023-06-26T07:41:27;28.00;90.10
1205;DHT22;592;48.764;9.174;2023-06-26T07:43:57;28.00;90.40
1205;DHT22;592;48.764;9.174;2023-06-26T07:46:24;28.30;90.10
1205;DHT22;592;48.764;9.174;2023-06-26T07:48:51;28.30;90.30
1205;DHT22;592;48.764;9.174;2023-06-26T07:51:17;28.30;89.40
1205;DHT22;592;48.764;9.174;2023-06-26T07:53:44;28.30;90.10
1205;DHT22;592;48.764;9.174;2023-06-26T07:56:11;28.40;88.90
1205;DHT22;592;48.764;9.174;2023-06-26T07:58:38;28.40;89.80
1205;DHT22;592;48.764;9.174;2023-06-26T08:01:06;28.50;89.90
1205;DHT22;592;48.764;9.174;2023-06-26T08:03:32;28.50;89.50
1205;DHT22;592;48.764;9.174;2023-06-26T08:05:59;28.40;89.50
1205;DHT22;592;48.764;9.174;2023-06-26T08:08:26;28.30;89.50
1205;DHT22;592;48.764;9.174;2023-06-26T08:10:53;28.30;89.50
1205;DHT22;592;48.764;9.174;2023-06-26T08:13:20;28.50;89.70
1205;DHT22;592;48.764;9.174;2023-06-26T08:15:46;28.60;89.30
1205;DHT22;592;48.764;9.174;2023-06-26T08:18:14;28.70;89.00
1205;DHT22;592;48.764;9.174;2023-06-26T08:20:41;28.50;88.40
1205;DHT22;592;48.764;9.174;2023-06-26T08:23:08;28.60;88.60
1205;DHT22;592;48.764;9.174;2023-06-26T08:25:35;28.80;88.00
1205;DHT22;592;48.764;9.174;2023-06-26T08:28:02;28.90;88.10
1205;DHT22;592;48.764;9.174;2023-06-26T08:30:29;29.00;87.70
1205;DHT22;592;48.764;9.174;2023-06-26T08:32:55;28.90;87.20
1205;DHT22;592;48.764;9.174;2023-06-26T08:35:23;29.10;87.50
1205;DHT22;592;48.764;9.174;2023-06-26T08:37:50;29.20;87.00
1205;DHT22;592;48.764;9.174;2023-06-26T08:40:17;29.10;86.30
1205;DHT22;592;48.764;9.174;2023-06-26T08:42:45;29.30;87.60
1205;DHT22;592;48.764;9.174;2023-06-26T08:45:12;29.40;86.40
1205;DHT22;592;48.764;9.174;2023-06-26T08:47:40;29.40;85.40
1205;DHT22;592;48.764;9.174;2023-06-26T08:50:10;29.40;85.30
1205;DHT22;592;48.764;9.174;2023-06-26T08:52:42;29.50;84.60
1205;DHT22;592;48.764;9.174;2023-06-26T08:55:10;29.40;84.90
1205;DHT22;592;48.764;9.174;2023-06-26T08:57:37;29.40;84.60
1205;DHT22;592;48.764;9.174;2023-06-26T09:00:07;29.50;85.50
1205;DHT22;592;48.764;9.174;2023-06-26T09:02:34;29.50;84.80
1205;DHT22;592;48.764;9.174;2023-06-26T09:05:02;29.60;85.60
1205;DHT22;592;48.764;9.174;2023-06-26T09:07:28;29.60;84.70
1205;DHT22;592;48.764;9.174;2023-06-26T09:09:56;29.60;84.30
1205;DHT22;592;48.764;9.174;2023-06-26T09:12:24;29.40;84.70
1205;DHT22;592;48.764;9.174;2023-06-26T09:14:54;29.30;84.80
1205;DHT22;592;48.764;9.174;2023-06-26T09:17:24;29.30;85.80
1205;DHT22;592;48.764;9.174;2023-06-26T09:19:51;29.50;85.50
1205;DHT22;592;48.764;9.174;2023-06-26T09:22:19;29.50;85.10
1205;DHT22;592;48.764;9.174;2023-06-26T09:24:47;29.60;84.30
1205;DHT22;592;48.764;9.174;2023-06-26T09:27:15;29.30;84.20
1205;DHT22;592;48.764;9.174;2023-06-26T09:29:44;29.40;85.30
1205;DHT22;592;48.764;9.174;2023-06-26T09:32:13;29.50;83.90
1205;DHT22;592;48.764;9.174;2023-06-26T09:34:41;29.70;84.10
1205;DHT22;592;48.764;9.174;2023-06-26T09:37:11;29.80;84.80
1205;DHT22;592;48.764;9.174;2023-06-26T09:39:38;29.80;82.60
1205;DHT22;592;48.764;9.174;2023-06-26T09:42:05;30.00;83.60
1205;DHT22;592;48.764;9.174;2023-06-26T09:44:34;30.20;82.00
1205;DHT22;592;48.764;9.174;2023-06-26T09:47:02;30.00;79.40
1205;DHT22;592;48.764;9.174;2023-06-26T09:49:29;29.90;81.60
1205;DHT22;592;48.764;9.174;2023-06-26T09:52:00;30.20;81.30
1205;DHT22;592;48.764;9.174;2023-06-26T09:54:28;30.50;83.00
1205;DHT22;592;48.764;9.174;2023-06-26T09:56:56;30.40;82.60
1205;DHT22;592;48.764;9.174;2023-06-26T09:59:23;30.50;82.30
1205;DHT22;592;48.764;9.174;2023-06-26T10:01:58;30.50;82.20
1205;DHT22;592;48.764;9.174;2023-06-26T10:04:25;30.30;83.30
1205;DHT22;592;48.764;9.174;2023-06-26T10:06:55;30.10;84.50
1205;DHT22;592;48.764;9.174;2023-06-26T10:09:23;30.00;85.00
1205;DHT22;592;48.764;9.174;2023-06-26T10:11:54;30.00;84.70
1205;DHT22;592;48.764;9.174;2023-06-26T10:14:22;29.80;85.20
1205;DHT22;592;48.764;9.174;2023-06-26T10:16:51;29.50;85.50
1205;DHT22;592;48.764;9.174;2023-06-26T10:19:19;29.40;86.20
1205;DHT22;592;48.764;9.174;2023-06-26T10:21:51;29.50;85.70
1205;DHT22;592;48.764;9.174;2023-06-26T10:24:19;29.50;86.00
1205;DHT22;592;48.764;9.174;2023-06-26T10:26:49;29.50;86.70
1205;DHT22;592;48.764;9.174;2023-06-26T10:29:17;29.30;87.60
1205;DHT22;592;48.764;9.174;2023-06-26T10:31:56;29.30;87.70
1205;DHT22;592;48.764;9.174;2023-06-26T10:34:24;29.30;87.60
1205;DHT22;592;48.764;9.174;2023-06-26T10:36:59;29.20;87.60
1205;DHT22;592;48.764;9.174;2023-06-26T10:39:26;29.00;88.10
1205;DHT22;592;48.764;9.174;2023-06-26T10:41:54;28.90;88.70
1205;DHT22;592;48.764;9.174;2023-06-26T10:44:21;29.00;89.20
1205;DHT22;592;48.764;9.174;2023-06-26T10:46:49;29.00;88.60
1205;DHT22;592;48.764;9.174;2023-06-26T10:49:19;28.90;88.90
1205;DHT22;592;48.764;9.174;2023-06-26T10:51:47;28.50;88.80
1205;DHT22;592;48.764;9.174;2023-06-26T10:54:15;28.50;89.00
1205;DHT22;592;48.764;9.174;2023-06-26T10:56:43;28.90;90.20
1205;DHT22;592;48.764;9.174;2023-06-26T10:59:18;29.20;89.50
1205;DHT22;592;48.764;9.174;2023-06-26T11:01:46;29.30;88.50
1205;DHT22;592;48.764;9.174;2023-06-26T11:04:14;29.30;88.90
1205;DHT22;592;48.764;9.174;2023-06-26T11:06:45;29.50;88.50
1205;DHT22;592;48.764;9.174;2023-06-26T11:09:17;29.80;86.90
1205;DHT22;592;48.764;9.174;2023-06-26T11:12:09;29.80;88.00
1205;DHT22;592;48.764;9.174;2023-06-26T11:14:36;29.70;87.90
1205;DHT22;592;48.764;9.174;2023-06-26T11:17:04;29.40;87.20
1205;DHT22;592;48.764;9.174;2023-06-26T11:19:31;29.40;88.30
1205;DHT22;592;48.764;9.174;2023-06-26T11:22:08;29.40;89.00
1205;DHT22;592;48.764;9.174;2023-06-26T11:24:36;29.30;88.90
1205;DHT22;592;48.764;9.174;2023-06-26T11:27:04;29.50;87.60
1205;DHT22;592;48.764;9.174;2023-06-26T11:29:31;29.40;87.70
1205;DHT22;592;48.764;9.174;2023-06-26T11:32:00;29.60;87.80
1205;DHT22;592;48.764;9.174;2023-06-26T11:34:30;29.70;87.90
1205;DHT22;592;48.764;9.174;2023-06-26T11:36:57;30.00;87.90
1205;DHT22;592;48.764;9.174;2023-06-26T11:39:28;30.00;88.20
1205;DHT22;592;48.764;9.174;2023-06-26T11:41:54;30.00;87.90
1205;DHT22;592;48.764;9.174;2023-06-26T11:44:21;30.10;88.30
1205;DHT22;592;48.764;9.174;2023-06-26T11:46:51;30.10;89.00
1205;DHT22;592;48.764;9.174;2023-06-26T11:49:21;30.10;88.30
1205;DHT22;592;48.764;9.174;2023-06-26T11:51:48;30.10;89.30
1205;DHT22;592;48.764;9.174;2023-06-26T11:54:15;30.20;88.30
1205;DHT22;592;48.764;9.174;2023-06-26T11:56:43;30.00;89.30
1205;DHT22;592;48.764;9.174;2023-06-26T11:59:11;29.80;89.40
1205;DHT22;592;48.764;9.174;2023-06-26T12:01:40;29.50;89.50
1205;DHT22;592;48.764;9.174;2023-06-26T12:04:09;29.90;90.10
1205;DHT22;592;48.764;9.174;2023-06-26T12:06:37;30.10;89.80
1205;DHT22;592;48.764;9.174;2023-06-26T12:09:06;30.00;89.80
1205;DHT22;592;48.764;9.174;2023-06-26T12:11:35;30.10;90.20
1205;DHT22;592;48.764;9.174;2023-06-26T12:14:05;29.90;90.70
1205;DHT22;592;48.764;9.174;2023-06-26T12:16:33;29.70;91.30
1205;DHT22;592;48.764;9.174;2023-06-26T12:19:01;29.90;91.30
1205;DHT22;592;48.764;9.174;2023-06-26T12:21:42;29.50;91.70
1205;DHT22;592;48.764;9.174;2023-06-26T12:24:13;29.70;91.70
1205;DHT22;592;48.764;9.174;2023-06-26T12:26:41;29.60;91.80
1205;DHT22;592;48.764;9.174;2023-06-26T12:29:12;29.60;91.70
1205;DHT22;592;48.764;9.174;2023-06-26T12:31:40;29.50;91.80
1205;DHT22;592;48.764;9.174;2023-06-26T12:34:09;29.90;91.80
1205;DHT22;592;48.764;9.174;2023-06-26T12:36:40;29.80;91.10
1205;DHT22;592;48.764;9.174;2023-06-26T12:39:09;29.80;91.40
1205;DHT22;592;48.764;9.174;2023-06-26T12:41:47;29.80;91.50
1205;DHT22;592;48.764;9.174;2023-06-26T12:44:19;29.80;91.60
1205;DHT22;592;48.764;9.174;2023-06-26T12:46:47;29.80;91.40
1205;DHT22;592;48.764;9.174;2023-06-26T12:49:15;29.80;91.10
1205;DHT22;592;48.764;9.174;2023-06-26T12:51:42;29.80;91.20
1205;DHT22;592;48.764;9.174;2023-06-26T12:54:10;30.20;91.00
1205;DHT22;592;48.764;9.174;2023-06-26T12:56:37;30.30;90.90
1205;DHT22;592;48.764;9.174;2023-06-26T12:59:04;30.40;90.70
1205;DHT22;592;48.764;9.174;2023-06-26T13:01:32;30.00;90.90
1205;DHT22;592;48.764;9.174;2023-06-26T13:03:59;30.20;90.80
1205;DHT22;592;48.764;9.174;2023-06-26T13:06:26;30.40;90.90
1205;DHT22;592;48.764;9.174;2023-06-26T13:08:53;30.50;90.80
1205;DHT22;592;48.764;9.174;2023-06-26T13:11:19;29.80;90.70
1205;DHT22;592;48.764;9.174;2023-06-26T13:13:47;30.00;91.00
1205;DHT22;592;48.764;9.174;2023-06-26T13:16:13;30.20;91.00
1205;DHT22;592;48.764;9.174;2023-06-26T13:18:42;30.20;90.80
1205;DHT22;592;48.764;9.174;2023-06-26T13:21:10;30.50;90.70
1205;DHT22;592;48.764;9.174;2023-06-26T13:23:37;30.80;90.40
1205;DHT22;592;48.764;9.174;2023-06-26T13:26:04;30.60;90.20
1205;DHT22;592;48.764;9.174;2023-06-26T13:28:34;30.50;90.00
1205;DHT22;592;48.764;9.174;2023-06-26T13:31:01;30.40;90.40
1205;DHT22;592;48.764;9.174;2023-06-26T13:33:28;30.50;89.30
1205;DHT22;592;48.764;9.174;2023-06-26T13:35:56;30.30;89.10
1205;DHT22;592;48.764;9.174;2023-06-26T13:38:24;29.90;90.00
1205;DHT22;592;48.764;9.174;2023-06-26T13:40:52;30.10;90.10
1205;DHT22;592;48.764;9.174;2023-06-26T13:43:20;30.20;89.70
1205;DHT22;592;48.764;9.174;2023-06-26T13:45:47;30.10;89.10
1205;DHT22;592;48.764;9.174;2023-06-26T13:48:14;29.70;89.10
1205;DHT22;592;48.764;9.174;2023-06-26T13:50:41;30.10;88.00
1205;DHT22;592;48.764;9.174;2023-06-26T13:53:09;30.00;87.20
1205;DHT22;592;48.764;9.174;2023-06-26T13:55:36;30.00;88.50
1205;DHT22;592;48.764;9.174;2023-06-26T13:58:03;30.40;87.90
1205;DHT22;592;48.764;9.174;2023-06-26T14:00:32;30.50;87.20
1205;DHT22;592;48.764;9.174;2023-06-26T14:03:00;30.60;85.60
1205;DHT22;592;48.764;9.174;2023-06-26T14:05:27;30.60;85.90
1205;DHT22;592;48.764;9.174;2023-06-26T14:07:56;30.80;85.30
1205;DHT22;592;48.764;9.174;2023-06-26T14:10:24;30.70;84.60
1205;DHT22;592;48.764;9.174;2023-06-26T14:12:51;29.90;83.20
1205;DHT22;592;48.764;9.174;2023-06-26T14:15:18;30.80;83.70
1205;DHT22;592;48.764;9.174;2023-06-26T14:17:45;30.80;82.90
1205;DHT22;592;48.764;9.174;2023-06-26T14:20:13;30.20;82.40
1205;DHT22;592;48.764;9.174;2023-06-26T14:22:40;31.00;81.80
1205;DHT22;592;48.764;9.174;2023-06-26T14:25:07;30.70;80.80
1205;DHT22;592;48.764;9.174;2023-06-26T14:27:36;31.20;80.00
1205;DHT22;592;48.764;9.174;2023-06-26T14:30:03;31.20;78.50
1205;DHT22;592;48.764;9.174;2023-06-26T14:32:30;31.30;80.70
1205;DHT22;592;48.764;9.174;2023-06-26T14:34:57;31.30;80.30
1205;DHT22;592;48.764;9.174;2023-06-26T14:37:25;31.50;81.20
1205;DHT22;592;48.764;9.174;2023-06-26T14:39:52;31.90;80.60
1205;DHT22;592;48.764;9.174;2023-06-26T14:42:19;32.40;78.90
1205;DHT22;592;48.764;9.174;2023-06-26T14:44:47;31.70;79.90
1205;DHT22;592;48.764;9.174;2023-06-26T14:47:16;31.70;79.70
1205;DHT22;592;48.764;9.174;2023-06-26T14:49:42;31.40;80.40
1205;DHT22;592;48.764;9.174;2023-06-26T14:52:09;31.90;79.10
1205;DHT22;592;48.764;9.174;2023-06-26T14:54:36;32.20;79.00
1205;DHT22;592;48.764;9.174;2023-06-26T14:57:03;32.50;78.30
1205;DHT22;592;48.764;9.174;2023-06-26T14:59:30;32.40;77.20
1205;DHT22;592;48.764;9.174;2023-06-26T15:01:58;31.30;77.90
1205;DHT22;592;48.764;9.174;2023-06-26T15:04:24;32.00;77.90
1205;DHT22;592;48.764;9.174;2023-06-26T15:06:52;31.90;78.80
1205;DHT22;592;48.764;9.174;2023-06-26T15:09:18;31.30;79.00
1205;DHT22;592;48.764;9.174;2023-06-26T15:11:45;31.20;78.50
1205;DHT22;592;48.764;9.174;2023-06-26T15:14:12;31.20;79.90
1205;DHT22;592;48.764;9.174;2023-06-26T15:16:39;30.90;80.50
1205;DHT22;592;48.764;9.174;2023-06-26T15:19:07;31.00;80.60
1205;DHT22;592;48.764;9.174;2023-06-26T15:21:34;30.70;80.80
1205;DHT22;592;48.764;9.174;2023-06-26T15:24:01;30.90;81.30
1205;DHT22;592;48.764;9.174;2023-06-26T15:26:28;30.80;81.50
1205;DHT22;592;48.764;9.174;2023-06-26T15:28:54;31.10;81.20
1205;DHT22;592;48.764;9.174;2023-06-26T15:31:21;30.60;80.80
1205;DHT22;592;48.764;9.174;2023-06-26T15:33:48;30.60;81.80
1205;DHT22;592;48.764;9.174;2023-06-26T15:36:16;30.40;80.80
1205;DHT22;592;48.764;9.174;2023-06-26T15:38:44;30.30;80.70
1205;DHT22;592;48.764;9.174;2023-06-26T15:41:11;30.10;80.30
1205;DHT22;592;48.764;9.174;2023-06-26T15:43:38;29.80;81.10
1205;DHT22;592;48.764;9.174;2023-06-26T15:46:08;29.40;82.20
1205;DHT22;592;48.764;9.174;2023-06-26T15:48:34;29.00;82.40
1205;DHT22;592;48.764;9.174;2023-06-26T15:51:01;29.40;83.70
1205;DHT22;592;48.764;9.174;2023-06-26T15:53:35;28.50;83.70
1205;DHT22;592;48.764;9.174;2023-06-26T15:56:05;28.40;84.20
1205;DHT22;592;48.764;9.174;2023-06-26T15:58:32;28.50;84.30
1205;DHT22;592;48.764;9.174;2023-06-26T16:01:00;28.40;84.40
1205;DHT22;592;48.764;9.174;2023-06-26T16:03:26;28.70;84.30
1205;DHT22;592;48.764;9.174;2023-06-26T16:05:53;28.60;84.10
1205;DHT22;592;48.764;9.174;2023-06-26T16:08:20;28.20;83.90
1205;DHT22;592;48.764;9.174;2023-06-26T16:10:48;28.20;85.10
1205;DHT22;592;48.764;9.174;2023-06-26T16:13:15;28.20;84.60
1205;DHT22;592;48.764;9.174;2023-06-26T16:15:44;28.40;84.80
1205;DHT22;592;48.764;9.174;2023-06-26T16:18:11;28.50;85.20
1205;DHT22;592;48.764;9.174;2023-06-26T16:20:37;28.30;84.90